Hauptseite
METAR-TAF:

METAR-TAF

Flughäfen :

RNAS Yeovilton

Yeovilton, England

Breite: 51-00N, Länge: 002-38W, Höhe: 23 m

Beobachtung

Neuester Wetterbericht von vor 33 Minuten, um 12:20 UTC
Wind 4 kt aus Nord/Nordost
Temperatur 24°C
Luftfeuchtigkeit 50%
Luftdruck 1034 hPa
Sichtweite 10 km oder mehr
Aufgelockert bewölkt in der Höhe von 3000 ft

METAR: EGDY 271220Z 02004KT 9999 SCT030 24/13 Q1034 NOSIG RMK BLU BLU

Zeit: 13:53 (12:53 UTC)

Prognose

Neuester Wetterbericht von vor 2 Stunden und 14 Minuten, um 10:39 UTC
Gültige Prognose vom 27 um 12 UTC bis 27 um 21 UTC
Wind 4 kt aus Nordost
Sichtweite 10 km oder mehr
Aufgelockert bewölkt in der Höhe von 4000 ft
Übergehend zu
vom 27 um 15 UTC bis 27 um 17 UTC
Wind 7 kt aus Südwest

TAF: EGDY 271039Z 2712/2721 04004KT 9999 SCT040 BECMG 2715/2717 22007KT

Wetterbeobachtungen und Prognosen von mehr als 4000 Flughäfen (METAR und TAF Bericht).

Die verfügbaren Stationen werden durch gelbe und rote Markierungen auf der Karte dargestellt.

Führen Sie die Maus auf sie, um den Namen der Station zu sehen.

Darauf klicken, um die Beobachtung von Wetterbeobachtungen und Prognosen zu sehen.

Um die Karte zu ändern : klicken Sie auf den grünen Tasten mit einem schwarzen Kreuz Zum Vergrößern, auf den grünen Button mit einem Gedankenstrich zu verkleinern, oder auf die grünen Pfeile für benachbarte Karten.


METAR-TAF: